Time;durP1;ratioP1;P1;durP2;ratioP2;P2;SDS_P1;SDS_P2;PMS_P1;PMS_P2;Temp;Humidity;BMP_temperature;BMP_pressure;BME280_temperature;BME280_humidity;BME280_pressure;Samples;Min_cycle;Max_cycle;Signal;HPM_P1;HPM_P2
2022/03/11 00:00:57;;;;;;;9.88;7.78;;;2.80;99.90;;;;;;5067740;28;20103;-50
2022/03/11 00:03:23;;;;;;;9.52;7.38;;;2.70;99.90;;;;;;5068577;28;20025;-49
2022/03/11 00:05:51;;;;;;;12.50;7.93;;;2.70;99.90;;;;;;5067774;28;20366;-50
2022/03/11 00:08:16;;;;;;;9.05;6.57;;;2.70;99.90;;;;;;5068622;28;20029;-54
2022/03/11 00:10:42;;;;;;;9.15;7.03;;;2.70;99.90;;;;;;5067907;28;20044;-51
2022/03/11 00:13:08;;;;;;;9.65;7.40;;;2.60;99.90;;;;;;5070270;28;20107;-52
2022/03/11 00:15:34;;;;;;;12.13;7.53;;;2.60;99.90;;;;;;5071743;28;20036;-48
2022/03/11 00:18:03;;;;;;;11.60;7.18;;;2.60;99.90;;;;;;5071854;28;20024;-51
2022/03/11 00:20:28;;;;;;;10.68;6.50;;;2.50;99.90;;;;;;5070537;28;20037;-54
2022/03/11 00:22:54;;;;;;;9.82;6.93;;;2.50;99.90;;;;;;5071439;28;20377;-51
2022/03/11 00:25:21;;;;;;;7.90;6.47;;;2.50;99.90;;;;;;5068984;28;20512;-50
2022/03/11 00:27:47;;;;;;;9.52;6.68;;;2.50;99.90;;;;;;5071622;28;20021;-51
2022/03/11 00:30:13;;;;;;;9.20;6.43;;;2.50;99.90;;;;;;5071727;28;20020;-50
2022/03/11 00:32:40;;;;;;;8.82;7.10;;;2.40;99.90;;;;;;5071792;28;20034;-50
2022/03/11 00:35:08;;;;;;;10.85;6.55;;;2.40;99.90;;;;;;5071393;28;20496;-53
2022/03/11 00:37:35;;;;;;;10.65;6.72;;;2.40;99.90;;;;;;5071439;28;20025;-52
2022/03/11 00:40:01;;;;;;;8.65;6.80;;;2.40;99.90;;;;;;5071198;28;20075;-51
2022/03/11 00:42:27;;;;;;;10.55;7.28;;;2.30;99.90;;;;;;5071143;28;20064;-50
2022/03/11 00:44:52;;;;;;;9.48;5.93;;;2.30;99.90;;;;;;5071144;28;20077;-51
2022/03/11 00:47:18;;;;;;;10.57;6.32;;;2.30;99.90;;;;;;5071689;28;20028;-55
2022/03/11 00:49:44;;;;;;;8.65;6.43;;;2.20;99.90;;;;;;5071514;28;20020;-51
2022/03/11 00:52:10;;;;;;;12.15;7.22;;;2.10;99.90;;;;;;5070869;28;20028;-53
2022/03/11 00:54:35;;;;;;;11.50;6.65;;;2.10;99.90;;;;;;5071224;28;20036;-54
2022/03/11 00:57:01;;;;;;;8.38;6.10;;;2.10;99.90;;;;;;5070972;28;20024;-50
2022/03/11 00:59:26;;;;;;;12.27;5.82;;;2.00;99.90;;;;;;5071086;28;20028;-50
2022/03/11 01:01:52;;;;;;;9.07;6.15;;;2.00;99.90;;;;;;5070678;28;20025;-52
2022/03/11 01:04:17;;;;;;;9.77;6.32;;;2.00;99.90;;;;;;5063904;28;20111;-55
2022/03/11 01:06:43;;;;;;;10.48;6.68;;;2.00;99.90;;;;;;5071174;28;20040;-55
2022/03/11 01:09:08;;;;;;;10.07;6.57;;;1.90;99.90;;;;;;5071592;28;20078;-52
2022/03/11 01:11:34;;;;;;;7.53;5.35;;;1.90;99.90;;;;;;5071662;28;20063;-53
2022/03/11 01:14:00;;;;;;;9.23;6.35;;;1.90;99.90;;;;;;5070913;28;20069;-52
2022/03/11 01:16:26;;;;;;;8.13;6.00;;;1.90;99.90;;;;;;5070887;28;20468;-53
2022/03/11 01:18:51;;;;;;;7.82;5.35;;;1.80;99.90;;;;;;5071820;28;20021;-55
2022/03/11 01:21:17;;;;;;;8.18;5.63;;;1.80;99.90;;;;;;5071253;28;20052;-49
2022/03/11 01:23:43;;;;;;;10.23;6.00;;;1.80;99.90;;;;;;5069744;28;20031;-49
2022/03/11 01:26:10;;;;;;;6.85;5.68;;;1.70;99.90;;;;;;5070832;28;20028;-52
2022/03/11 01:28:36;;;;;;;10.60;6.65;;;1.70;99.90;;;;;;5070586;28;20067;-51
2022/03/11 01:31:02;;;;;;;9.52;6.40;;;1.70;99.90;;;;;;5070281;28;20484;-51
2022/03/11 01:33:28;;;;;;;8.02;5.97;;;1.70;99.90;;;;;;5070635;28;20028;-51
2022/03/11 01:35:53;;;;;;;9.02;6.00;;;1.70;99.90;;;;;;5070735;28;20024;-52
2022/03/11 01:38:19;;;;;;;9.88;6.07;;;1.70;99.90;;;;;;5070794;28;20048;-50
2022/03/11 01:40:44;;;;;;;8.70;5.75;;;1.70;99.90;;;;;;5062663;28;20522;-52
2022/03/11 01:43:15;;;;;;;10.00;5.90;;;1.60;99.90;;;;;;5058949;28;20074;-53
2022/03/11 01:45:41;;;;;;;7.22;5.18;;;1.60;99.90;;;;;;5070629;28;20028;-49
2022/03/11 01:48:08;;;;;;;6.80;5.18;;;1.60;99.90;;;;;;5070592;28;20028;-53
2022/03/11 01:50:34;;;;;;;6.57;5.07;;;1.50;99.90;;;;;;5070231;28;20203;-50
2022/03/11 01:53:00;;;;;;;12.57;5.45;;;1.50;99.90;;;;;;5070771;28;20543;-51
2022/03/11 01:55:25;;;;;;;8.32;5.85;;;1.50;99.90;;;;;;5070463;28;20032;-50
2022/03/11 01:57:51;;;;;;;7.78;5.35;;;1.50;99.90;;;;;;5051068;28;20580;-48
2022/03/11 02:00:17;;;;;;;7.88;5.22;;;1.40;99.90;;;;;;5067309;28;20025;-51
2022/03/11 02:02:43;;;;;;;7.32;5.13;;;1.40;99.90;;;;;;5068052;28;20025;-51
2022/03/11 02:05:14;;;;;;;8.57;5.85;;;1.40;99.90;;;;;;5069565;28;20487;-51
2022/03/11 02:07:40;;;;;;;11.10;6.38;;;1.40;99.90;;;;;;5070508;28;20570;-52
2022/03/11 02:10:06;;;;;;;8.63;5.97;;;1.30;99.90;;;;;;5070133;28;20093;-50
2022/03/11 02:12:36;;;;;;;11.48;6.05;;;1.30;99.90;;;;;;5068090;28;20024;-52
2022/03/11 02:15:06;;;;;;;7.97;5.78;;;1.30;99.90;;;;;;5069775;28;20062;-52
2022/03/11 02:17:32;;;;;;;9.65;5.63;;;1.30;99.90;;;;;;5069637;28;20078;-50
2022/03/11 02:19:57;;;;;;;9.50;5.97;;;1.30;99.90;;;;;;5069638;28;20112;-52
2022/03/11 02:22:24;;;;;;;10.15;5.90;;;1.30;99.90;;;;;;5069784;28;20032;-51
2022/03/11 02:24:51;;;;;;;9.23;5.40;;;1.30;99.90;;;;;;5069512;28;20033;-50
2022/03/11 02:27:17;;;;;;;7.57;5.78;;;1.30;99.90;;;;;;5069769;28;20055;-54
2022/03/11 02:29:43;;;;;;;9.30;5.82;;;1.20;99.90;;;;;;5069684;28;20035;-51
2022/03/11 02:32:09;;;;;;;10.40;5.95;;;1.20;99.90;;;;;;5069896;28;20021;-51
2022/03/11 02:34:37;;;;;;;7.80;5.40;;;1.20;99.90;;;;;;5069538;28;20107;-52
2022/03/11 02:37:03;;;;;;;8.55;5.90;;;1.20;99.90;;;;;;5069145;28;20389;-52
2022/03/11 02:39:28;;;;;;;9.05;5.57;;;1.10;99.90;;;;;;5069460;28;20028;-50
2022/03/11 02:41:54;;;;;;;7.95;5.55;;;1.10;99.90;;;;;;5068887;28;20405;-50
2022/03/11 02:44:20;;;;;;;6.90;4.97;;;1.10;99.90;;;;;;5069478;28;20032;-52
2022/03/11 02:46:45;;;;;;;9.35;5.80;;;1.00;99.90;;;;;;5069378;28;20059;-50
2022/03/11 02:49:11;;;;;;;9.10;6.50;;;1.00;99.90;;;;;;5069307;28;20111;-50
2022/03/11 02:51:36;;;;;;;8.73;5.70;;;1.00;99.90;;;;;;5068625;28;20064;-51
2022/03/11 02:54:03;;;;;;;7.50;6.03;;;0.90;99.90;;;;;;5067240;28;20025;-50
2022/03/11 02:56:28;;;;;;;9.07;5.55;;;0.90;99.90;;;;;;5069658;28;20053;-51
2022/03/11 02:58:54;;;;;;;10.23;6.40;;;0.90;99.90;;;;;;5069144;28;20105;-52
2022/03/11 03:01:19;;;;;;;11.45;5.90;;;0.90;99.90;;;;;;5069131;28;20507;-51
2022/03/11 03:03:45;;;;;;;8.63;5.53;;;0.90;99.90;;;;;;5069173;28;20043;-51
2022/03/11 03:06:11;;;;;;;11.35;6.78;;;0.80;99.90;;;;;;5069454;28;20032;-54
2022/03/11 03:08:36;;;;;;;7.38;5.63;;;0.80;99.90;;;;;;5069319;28;20033;-51
2022/03/11 03:11:02;;;;;;;9.65;6.72;;;0.80;99.90;;;;;;5069419;28;20033;-50
2022/03/11 03:13:27;;;;;;;8.52;5.78;;;0.80;99.90;;;;;;5068740;28;20083;-54
2022/03/11 03:15:53;;;;;;;11.68;6.15;;;0.70;99.90;;;;;;5068974;28;20042;-50
2022/03/11 03:18:18;;;;;;;9.02;6.30;;;0.70;99.90;;;;;;5069056;28;20067;-55
2022/03/11 03:20:44;;;;;;;11.25;6.53;;;0.70;99.90;;;;;;5068956;28;20048;-51
2022/03/11 03:23:10;;;;;;;12.15;6.53;;;0.60;99.90;;;;;;5069068;28;20112;-50
2022/03/11 03:25:36;;;;;;;9.68;6.18;;;0.60;99.90;;;;;;5068539;28;20071;-51
2022/03/11 03:28:02;;;;;;;7.40;5.85;;;0.60;99.90;;;;;;5068508;28;20033;-51
2022/03/11 03:30:27;;;;;;;9.60;6.35;;;0.60;99.90;;;;;;5052955;28;20024;-51
2022/03/11 03:32:53;;;;;;;9.73;6.65;;;0.50;99.90;;;;;;5068769;28;20040;-50
2022/03/11 03:35:18;;;;;;;10.73;6.68;;;0.50;99.90;;;;;;5068572;28;20037;-50
2022/03/11 03:37:45;;;;;;;11.10;6.18;;;0.50;99.90;;;;;;5068769;28;20086;-50
2022/03/11 03:40:11;;;;;;;9.60;6.30;;;0.50;99.90;;;;;;5068604;28;20039;-51
2022/03/11 03:42:36;;;;;;;10.32;6.28;;;0.40;99.90;;;;;;5091696;22;20075;-48
2022/03/11 03:45:03;;;;;;;12.52;6.57;;;0.40;99.90;;;;;;5068732;28;20475;-45
2022/03/11 03:47:28;;;;;;;11.25;6.00;;;0.40;99.90;;;;;;5071403;28;20028;-47
2022/03/11 03:49:54;;;;;;;11.60;6.18;;;0.30;99.90;;;;;;5073277;28;20468;-48
2022/03/11 03:52:19;;;;;;;11.88;7.57;;;0.30;99.90;;;;;;5072727;28;20095;-49
2022/03/11 03:54:45;;;;;;;10.07;6.38;;;0.30;99.90;;;;;;5072660;28;20389;-47
2022/03/11 03:57:11;;;;;;;11.05;6.78;;;0.30;99.90;;;;;;5072760;28;20074;-47
2022/03/11 03:59:39;;;;;;;10.20;6.78;;;0.20;99.90;;;;;;5072766;28;20031;-46
2022/03/11 04:02:04;;;;;;;10.38;6.60;;;0.20;99.90;;;;;;5054305;28;20125;-49
2022/03/11 04:04:30;;;;;;;10.32;6.47;;;0.10;99.90;;;;;;5072759;28;20118;-47
2022/03/11 04:06:55;;;;;;;10.57;6.30;;;0.10;99.90;;;;;;5072594;28;20485;-46
2022/03/11 04:09:21;;;;;;;12.07;7.00;;;0.10;99.90;;;;;;5072196;28;20020;-45
2022/03/11 04:11:46;;;;;;;10.90;6.70;;;0.10;99.90;;;;;;5072228;28;20032;-46
2022/03/11 04:14:12;;;;;;;11.57;7.10;;;0.10;99.90;;;;;;5072332;28;20031;-47
2022/03/11 04:16:38;;;;;;;11.63;6.75;;;0.00;99.90;;;;;;5072577;28;20028;-46
2022/03/11 04:19:03;;;;;;;13.18;6.85;;;0.00;99.90;;;;;;5054480;28;20034;-48
2022/03/11 04:21:30;;;;;;;9.77;6.22;;;0.00;99.90;;;;;;5072397;28;20068;-51
2022/03/11 04:23:56;;;;;;;9.25;6.03;;;0.00;99.90;;;;;;5071998;28;20044;-48
2022/03/11 04:26:21;;;;;;;13.43;7.10;;;-0.10;99.90;;;;;;5072419;28;20467;-48
2022/03/11 04:28:47;;;;;;;9.80;6.35;;;-0.10;99.90;;;;;;5072466;28;20029;-47
2022/03/11 04:31:13;;;;;;;10.43;7.13;;;-0.10;99.90;;;;;;5072048;28;20039;-48
2022/03/11 04:33:40;;;;;;;13.25;7.05;;;-0.20;99.90;;;;;;5071390;28;20040;-48
2022/03/11 04:36:07;;;;;;;13.02;7.20;;;-0.20;99.90;;;;;;5071289;28;20032;-48
2022/03/11 04:38:33;;;;;;;8.70;5.97;;;-0.20;99.90;;;;;;5072067;28;20036;-46
2022/03/11 04:40:59;;;;;;;10.63;7.57;;;-0.20;99.90;;;;;;5070950;28;20028;-51
2022/03/11 04:43:25;;;;;;;10.57;5.82;;;-0.20;99.90;;;;;;5071491;28;20078;-47
2022/03/11 04:45:51;;;;;;;8.98;6.57;;;-0.30;99.90;;;;;;5053825;28;20028;-50
2022/03/11 04:48:17;;;;;;;11.20;6.63;;;-0.30;99.90;;;;;;5071730;28;20025;-47
2022/03/11 04:50:42;;;;;;;10.88;6.65;;;-0.30;99.90;;;;;;5071758;28;20039;-48
2022/03/11 04:53:08;;;;;;;10.77;6.20;;;-0.30;99.90;;;;;;5071187;28;20389;-46
2022/03/11 04:55:34;;;;;;;12.10;7.15;;;-0.40;99.90;;;;;;5053347;28;20440;-48
2022/03/11 04:57:59;;;;;;;11.40;7.40;;;-0.40;99.90;;;;;;5071052;28;20455;-49
2022/03/11 05:00:25;;;;;;;9.30;6.07;;;-0.40;99.90;;;;;;5071433;28;20097;-50
2022/03/11 05:02:52;;;;;;;8.73;6.50;;;-0.40;99.90;;;;;;5072173;28;20020;-50
2022/03/11 05:05:17;;;;;;;9.95;7.05;;;-0.40;99.90;;;;;;5067338;28;20162;-47
2022/03/11 05:07:43;;;;;;;10.50;6.88;;;-0.40;99.90;;;;;;5051765;28;20071;-46
2022/03/11 05:10:10;;;;;;;11.18;6.82;;;-0.40;99.90;;;;;;5064823;28;20036;-48
2022/03/11 05:12:37;;;;;;;7.85;5.40;;;-0.40;99.90;;;;;;5070649;28;20035;-50
2022/03/11 05:15:05;;;;;;;10.00;6.32;;;-0.40;99.90;;;;;;5058981;28;20495;-45
2022/03/11 05:17:31;;;;;;;12.10;7.63;;;-0.50;99.90;;;;;;5071621;28;20052;-48
2022/03/11 05:19:57;;;;;;;11.30;7.35;;;-0.40;99.90;;;;;;5052916;28;20032;-50
2022/03/11 05:22:22;;;;;;;10.75;6.75;;;-0.50;99.90;;;;;;5071051;28;20078;-47
2022/03/11 05:24:48;;;;;;;13.15;6.95;;;-0.50;99.90;;;;;;5070401;28;20090;-49
2022/03/11 05:27:14;;;;;;;10.30;6.47;;;-0.50;99.90;;;;;;5070940;28;20028;-46
2022/03/11 05:29:40;;;;;;;11.52;6.47;;;-0.50;99.90;;;;;;5071040;28;20435;-47
2022/03/11 05:32:06;;;;;;;13.18;7.40;;;-0.60;99.90;;;;;;5071206;28;20502;-47
2022/03/11 05:34:34;;;;;;;11.70;6.47;;;-0.50;99.90;;;;;;5070411;28;20349;-46
2022/03/11 05:36:59;;;;;;;9.00;6.38;;;-0.50;99.90;;;;;;5053051;28;20052;-46
2022/03/11 05:39:25;;;;;;;15.68;6.97;;;-0.50;99.90;;;;;;5070981;28;20424;-51
2022/03/11 05:41:50;;;;;;;10.25;6.70;;;-0.50;99.90;;;;;;5070825;28;20029;-46
2022/03/11 05:44:17;;;;;;;12.30;7.13;;;-0.50;99.90;;;;;;5070901;28;20029;-46
2022/03/11 05:46:44;;;;;;;11.27;6.70;;;-0.50;99.90;;;;;;5052790;28;20024;-49
2022/03/11 05:49:10;;;;;;;15.60;7.45;;;-0.50;99.90;;;;;;5070633;28;20540;-50
2022/03/11 05:51:36;;;;;;;12.13;6.75;;;-0.60;99.90;;;;;;5070915;28;20029;-48
2022/03/11 05:54:02;;;;;;;9.90;6.47;;;-0.50;99.90;;;;;;5052112;28;20154;-50
2022/03/11 05:56:27;;;;;;;11.23;6.68;;;-0.50;99.90;;;;;;5052709;28;20698;-49
2022/03/11 05:58:53;;;;;;;11.27;6.55;;;-0.50;99.90;;;;;;5070696;28;20487;-49
2022/03/11 06:01:19;;;;;;;11.05;6.80;;;-0.60;99.90;;;;;;5052055;28;20158;-47
2022/03/11 06:03:46;;;;;;;11.25;6.47;;;-0.60;99.90;;;;;;5070737;28;20392;-49
2022/03/11 06:06:14;;;;;;;9.98;6.20;;;-0.60;99.90;;;;;;5070601;28;20035;-49
2022/03/11 06:08:39;;;;;;;12.75;6.70;;;-0.60;99.90;;;;;;5070225;28;20106;-48
2022/03/11 06:11:05;;;;;;;13.70;6.95;;;-0.60;99.90;;;;;;5069774;28;20074;-46
2022/03/11 06:13:30;;;;;;;10.50;6.65;;;-0.60;99.90;;;;;;5069911;28;20032;-48
2022/03/11 06:15:56;;;;;;;13.13;7.68;;;-0.60;99.90;;;;;;5070016;28;20024;-47
2022/03/11 06:18:21;;;;;;;11.63;6.38;;;-0.60;99.90;;;;;;5070491;28;20017;-48
2022/03/11 06:20:47;;;;;;;12.30;6.65;;;-0.60;99.90;;;;;;5070395;28;20028;-49
2022/03/11 06:23:14;;;;;;;9.73;6.43;;;-0.60;99.90;;;;;;5070009;28;20116;-50
2022/03/11 06:25:39;;;;;;;12.18;7.30;;;-0.60;99.90;;;;;;5069991;28;20467;-51
2022/03/11 06:28:05;;;;;;;9.48;6.25;;;-0.60;99.90;;;;;;5052286;28;20047;-49
2022/03/11 06:30:31;;;;;;;12.50;6.25;;;-0.60;99.90;;;;;;5051790;28;20031;-47
2022/03/11 06:32:56;;;;;;;10.95;6.95;;;-0.60;99.90;;;;;;5069692;28;20048;-47
2022/03/11 06:35:22;;;;;;;10.43;6.60;;;-0.60;99.90;;;;;;5069942;28;20025;-49
2022/03/11 06:37:51;;;;;;;10.65;6.30;;;-0.50;99.90;;;;;;5070069;28;20147;-47
2022/03/11 06:40:18;;;;;;;11.60;6.03;;;-0.60;99.90;;;;;;5069640;28;20020;-48
2022/03/11 06:42:45;;;;;;;10.85;6.90;;;-0.50;99.90;;;;;;5069786;28;20044;-49
2022/03/11 06:45:14;;;;;;;12.80;7.32;;;-0.50;99.90;;;;;;5069202;28;20029;-50
2022/03/11 06:47:40;;;;;;;9.48;6.53;;;-0.50;99.90;;;;;;5069620;28;20515;-50
2022/03/11 06:50:07;;;;;;;14.73;6.78;;;-0.50;99.90;;;;;;5068684;28;20028;-48
2022/03/11 06:52:33;;;;;;;10.45;6.15;;;-0.40;99.90;;;;;;5069299;28;20120;-48
2022/03/11 06:54:59;;;;;;;13.23;7.45;;;-0.40;99.90;;;;;;5069744;28;20104;-50
2022/03/11 06:57:25;;;;;;;11.93;6.45;;;-0.40;99.90;;;;;;5069977;28;20040;-50
2022/03/11 06:59:50;;;;;;;10.15;7.00;;;-0.40;99.90;;;;;;5069107;28;20077;-49
2022/03/11 07:02:16;;;;;;;10.18;6.38;;;-0.30;99.90;;;;;;5068652;28;20399;-47
2022/03/11 07:04:42;;;;;;;10.45;6.20;;;-0.30;99.90;;;;;;5051503;28;20079;-49
2022/03/11 07:07:08;;;;;;;10.38;5.93;;;-0.20;99.90;;;;;;5069519;28;20064;-49
2022/03/11 07:09:34;;;;;;;10.18;6.20;;;-0.20;99.90;;;;;;5069389;28;20040;-51
2022/03/11 07:12:03;;;;;;;10.85;6.50;;;-0.10;99.90;;;;;;5069335;28;20087;-48
2022/03/11 07:14:35;;;;;;;15.90;6.22;;;0.00;99.90;;;;;;5069361;28;20042;-47
2022/03/11 07:17:01;;;;;;;9.52;6.15;;;0.00;99.90;;;;;;5053375;28;20027;-47
2022/03/11 07:19:27;;;;;;;12.73;6.43;;;0.00;99.90;;;;;;5051701;28;20043;-49
2022/03/11 07:21:56;;;;;;;13.60;6.45;;;0.10;99.90;;;;;;5068295;28;20048;-47
2022/03/11 07:24:22;;;;;;;10.98;6.20;;;0.10;99.70;;;;;;5069214;28;20396;-50
2022/03/11 07:26:48;;;;;;;8.90;5.97;;;0.20;99.30;;;;;;5069794;28;20037;-47
2022/03/11 07:29:14;;;;;;;12.05;6.25;;;0.30;99.90;;;;;;5068793;28;20033;-49
2022/03/11 07:31:39;;;;;;;10.73;5.63;;;0.30;99.10;;;;;;5069511;28;20044;-48
2022/03/11 07:34:05;;;;;;;10.30;6.30;;;0.40;99.50;;;;;;5069133;28;20111;-48
2022/03/11 07:36:34;;;;;;;9.38;6.60;;;0.50;99.20;;;;;;5069080;28;20481;-50
2022/03/11 07:39:03;;;;;;;9.30;5.68;;;0.50;98.60;;;;;;5068932;28;20108;-49
2022/03/11 07:41:30;;;;;;;8.98;5.85;;;0.60;98.00;;;;;;5069140;28;20047;-46
2022/03/11 07:43:56;;;;;;;10.32;6.40;;;0.70;97.30;;;;;;5068812;28;20528;-47
2022/03/11 07:46:23;;;;;;;10.73;6.70;;;0.70;97.80;;;;;;5069084;28;20059;-49
2022/03/11 07:48:50;;;;;;;12.13;6.40;;;0.80;96.60;;;;;;5051235;28;20040;-48
2022/03/11 07:51:16;;;;;;;9.98;5.90;;;0.90;96.80;;;;;;5068885;28;20039;-48
2022/03/11 07:53:42;;;;;;;11.95;5.38;;;0.90;96.30;;;;;;5068244;28;20036;-49
2022/03/11 07:56:10;;;;;;;8.82;6.25;;;1.00;96.20;;;;;;5068792;28;20063;-51
2022/03/11 07:58:36;;;;;;;9.00;6.22;;;1.10;95.50;;;;;;5068779;28;20501;-50
2022/03/11 08:01:01;;;;;;;12.57;6.15;;;1.20;95.20;;;;;;5068816;28;20093;-48
2022/03/11 08:03:27;;;;;;;8.73;6.20;;;1.30;95.00;;;;;;5068933;28;20083;-49
2022/03/11 08:05:52;;;;;;;10.77;6.72;;;1.30;94.50;;;;;;5069358;28;20039;-49
2022/03/11 08:08:18;;;;;;;9.05;5.75;;;1.50;93.50;;;;;;5069975;28;20119;-48
2022/03/11 08:10:44;;;;;;;11.23;5.93;;;1.60;92.30;;;;;;5068988;28;20021;-50
2022/03/11 08:13:10;;;;;;;9.10;5.63;;;1.70;91.90;;;;;;5068603;28;20032;-49
2022/03/11 08:15:36;;;;;;;10.90;6.50;;;1.80;91.40;;;;;;5069078;28;20094;-49
2022/03/11 08:18:03;;;;;;;8.45;5.63;;;1.90;90.80;;;;;;5068941;28;20024;-49
2022/03/11 08:20:29;;;;;;;10.45;6.05;;;2.00;90.30;;;;;;5068895;28;20048;-49
2022/03/11 08:22:55;;;;;;;9.85;5.78;;;2.20;90.20;;;;;;5068049;28;20064;-47
2022/03/11 08:25:26;;;;;;;8.73;5.68;;;2.30;90.10;;;;;;5068933;28;20098;-49
2022/03/11 08:27:53;;;;;;;10.90;6.20;;;2.50;84.70;;;;;;5068921;28;20511;-50
2022/03/11 08:30:18;;;;;;;13.75;6.28;;;2.60;83.20;;;;;;5067874;28;20040;-51
2022/03/11 08:32:44;;;;;;;10.32;5.78;;;2.70;81.90;;;;;;5069512;28;20024;-49
2022/03/11 08:35:10;;;;;;;13.25;5.97;;;2.90;81.50;;;;;;5071821;28;20095;-53
2022/03/11 08:37:36;;;;;;;9.65;5.68;;;3.00;79.20;;;;;;5072041;28;20024;-49
2022/03/11 08:40:04;;;;;;;10.30;6.45;;;3.10;79.80;;;;;;5072238;28;20039;-48
2022/03/11 08:42:29;;;;;;;9.18;5.82;;;3.40;78.00;;;;;;5071573;28;20040;-47
2022/03/11 08:44:55;;;;;;;11.82;6.43;;;3.50;78.50;;;;;;5053989;28;20037;-47
2022/03/11 08:47:20;;;;;;;8.13;5.65;;;3.60;77.40;;;;;;5072318;28;20029;-46
2022/03/11 08:49:46;;;;;;;9.60;6.13;;;3.70;75.10;;;;;;5054615;28;20032;-48
2022/03/11 08:52:11;;;;;;;9.60;6.03;;;3.80;75.60;;;;;;5072271;28;20458;-48
2022/03/11 08:54:37;;;;;;;9.70;5.70;;;3.90;72.30;;;;;;5072256;28;20077;-48
2022/03/11 08:57:03;;;;;;;10.75;5.72;;;4.00;73.10;;;;;;5072064;28;20123;-46
2022/03/11 08:59:29;;;;;;;12.38;5.90;;;4.10;73.70;;;;;;5054055;28;20492;-44
2022/03/11 09:01:55;;;;;;;10.57;5.60;;;4.10;70.90;;;;;;5071589;28;20433;-48
2022/03/11 09:04:21;;;;;;;12.63;5.97;;;4.20;70.00;;;;;;5072222;28;20060;-47
2022/03/11 09:06:47;;;;;;;9.80;5.80;;;4.30;70.10;;;;;;5053850;28;20555;-49
2022/03/11 09:09:12;;;;;;;13.77;8.05;;;4.40;72.40;;;;;;5072025;28;20105;-46
2022/03/11 09:11:38;;;;;;;10.15;6.57;;;4.50;71.30;;;;;;5053822;28;20042;-46
2022/03/11 09:14:04;;;;;;;9.45;6.32;;;4.60;70.10;;;;;;5053410;28;20437;-49
2022/03/11 09:16:31;;;;;;;12.65;7.07;;;4.70;69.40;;;;;;5072143;28;20039;-49
2022/03/11 09:18:57;;;;;;;9.82;6.90;;;4.80;69.50;;;;;;5072227;28;20040;-48
2022/03/11 09:21:23;;;;;;;9.45;5.82;;;4.80;67.30;;;;;;5071312;28;20017;-52
2022/03/11 09:23:49;;;;;;;9.45;5.82;;;4.90;67.70;;;;;;5053933;28;20090;-51
2022/03/11 09:26:15;;;;;;;9.70;5.57;;;4.90;67.50;;;;;;5070945;28;20439;-48
2022/03/11 09:28:40;;;;;;;8.23;5.47;;;4.90;67.80;;;;;;5071683;28;20051;-48
2022/03/11 09:31:08;;;;;;;13.30;6.30;;;4.80;66.10;;;;;;5053382;28;20115;-54
2022/03/11 09:33:38;;;;;;;8.18;5.65;;;4.80;68.80;;;;;;5071422;28;20036;-49
2022/03/11 09:36:05;;;;;;;9.23;5.72;;;5.00;65.80;;;;;;5071290;28;20029;-50
2022/03/11 09:38:30;;;;;;;15.23;6.50;;;5.00;65.70;;;;;;5070969;28;20032;-47
2022/03/11 09:40:58;;;;;;;11.18;6.18;;;5.10;66.10;;;;;;5070733;28;20017;-48
2022/03/11 09:43:25;;;;;;;10.80;5.88;;;5.20;68.10;;;;;;5106169;22;1175462;-51
2022/03/11 09:45:51;;;;;;;9.15;6.32;;;5.30;66.20;;;;;;5069722;28;20526;-50
2022/03/11 09:48:18;;;;;;;9.32;6.20;;;5.40;65.20;;;;;;5071364;28;20550;-46
2022/03/11 09:50:44;;;;;;;8.43;6.10;;;5.50;64.20;;;;;;5070660;28;20055;-52
2022/03/11 09:53:11;;;;;;;10.32;6.07;;;5.50;64.00;;;;;;5070601;28;20028;-50
2022/03/11 09:55:36;;;;;;;8.63;5.35;;;5.50;63.90;;;;;;5069363;28;20123;-51
2022/03/11 09:58:02;;;;;;;9.13;5.30;;;5.60;63.90;;;;;;5070637;28;20099;-49
2022/03/11 10:00:28;;;;;;;10.45;6.35;;;5.60;62.70;;;;;;5071175;28;20028;-49
2022/03/11 10:02:55;;;;;;;7.30;5.38;;;5.70;63.70;;;;;;5069772;28;20060;-50
2022/03/11 10:05:21;;;;;;;8.77;5.43;;;5.70;63.20;;;;;;5070917;28;20076;-49
2022/03/11 10:08:01;;;;;;;8.02;4.90;;;5.80;61.90;;;;;;5071013;28;20043;-50
2022/03/11 10:10:28;;;;;;;9.38;5.38;;;5.90;61.30;;;;;;5071564;28;20113;-50
2022/03/11 10:12:54;;;;;;;8.50;6.03;;;5.90;59.30;;;;;;5069610;28;20029;-48
2022/03/11 10:15:27;;;;;;;8.00;5.25;;;5.90;59.40;;;;;;5070723;28;20039;-48
2022/03/11 10:17:53;;;;;;;7.60;4.88;;;5.90;60.10;;;;;;5070196;28;20028;-48
2022/03/11 10:20:20;;;;;;;9.60;5.65;;;6.00;59.40;;;;;;5070322;28;20113;-49
2022/03/11 10:22:46;;;;;;;10.73;5.80;;;6.10;58.50;;;;;;5069722;28;20028;-50
2022/03/11 10:25:19;;;;;;;7.88;5.35;;;6.10;60.70;;;;;;5070581;28;20476;-51
2022/03/11 10:28:06;;;;;;;9.93;5.32;;;6.10;59.10;;;;;;5070028;28;20111;-49
2022/03/11 10:30:34;;;;;;;7.20;4.65;;;6.20;56.90;;;;;;5070135;28;20154;-52
2022/03/11 10:33:03;;;;;;;8.20;5.07;;;6.20;56.50;;;;;;5069901;28;20036;-52
2022/03/11 10:35:44;;;;;;;7.38;4.78;;;6.30;56.80;;;;;;5069556;28;20020;-50
2022/03/11 10:38:25;;;;;;;6.90;4.95;;;6.30;56.10;;;;;;5050419;28;20556;-53
2022/03/11 10:40:56;;;;;;;7.90;4.82;;;6.40;57.20;;;;;;5070235;28;20051;-47
2022/03/11 10:43:26;;;;;;;7.88;4.55;;;6.40;56.00;;;;;;5068473;28;20033;-50
2022/03/11 10:46:02;;;;;;;10.23;5.53;;;6.50;57.80;;;;;;5070246;28;20047;-49
2022/03/11 10:48:42;;;;;;;7.30;5.50;;;6.50;55.90;;;;;;5070383;28;20024;-50
2022/03/11 10:51:30;;;;;;;10.23;5.45;;;6.60;56.20;;;;;;5070319;28;20535;-50
2022/03/11 10:53:58;;;;;;;9.45;4.80;;;6.60;55.60;;;;;;5069745;28;20100;-49
2022/03/11 10:56:26;;;;;;;9.07;5.25;;;6.60;55.00;;;;;;5069234;28;20493;-50
2022/03/11 10:58:52;;;;;;;9.98;5.07;;;6.70;54.80;;;;;;5069580;28;20028;-49
2022/03/11 11:01:34;;;;;;;8.18;5.55;;;6.80;55.30;;;;;;5070017;28;20025;-48
2022/03/11 11:04:01;;;;;;;6.65;4.45;;;6.80;53.50;;;;;;5051657;28;20416;-50
2022/03/11 11:06:27;;;;;;;7.85;4.88;;;6.80;53.60;;;;;;5069514;28;20056;-49
2022/03/11 11:08:54;;;;;;;8.07;5.10;;;6.80;53.70;;;;;;5069580;28;20083;-50
2022/03/11 11:11:19;;;;;;;8.35;5.05;;;6.80;54.50;;;;;;5069964;28;20511;-50
2022/03/11 11:13:45;;;;;;;8.55;5.50;;;6.80;53.80;;;;;;5069365;28;20036;-50
2022/03/11 11:16:11;;;;;;;6.38;5.13;;;6.90;54.30;;;;;;5069776;28;20043;-49
2022/03/11 11:18:39;;;;;;;10.98;5.65;;;7.00;54.10;;;;;;5069384;28;20029;-49
2022/03/11 11:21:09;;;;;;;8.90;5.18;;;7.10;53.60;;;;;;5069962;28;20025;-50
2022/03/11 11:23:36;;;;;;;9.02;4.95;;;7.20;52.60;;;;;;5069562;28;20036;-49
2022/03/11 11:26:03;;;;;;;9.73;4.75;;;7.20;52.70;;;;;;5070190;28;20013;-50
2022/03/11 11:28:29;;;;;;;10.15;5.38;;;7.20;53.50;;;;;;5069634;28;20035;-51
2022/03/11 11:30:56;;;;;;;8.02;4.65;;;7.20;52.50;;;;;;5069684;28;20024;-48
2022/03/11 11:33:22;;;;;;;8.48;5.05;;;7.10;52.20;;;;;;5069381;28;20032;-51
2022/03/11 11:36:01;;;;;;;7.97;4.95;;;7.20;51.50;;;;;;5069609;28;20028;-50
2022/03/11 11:38:28;;;;;;;10.48;5.15;;;7.30;51.80;;;;;;5069533;28;20503;-50
2022/03/11 11:40:56;;;;;;;8.05;4.93;;;7.30;51.70;;;;;;5069594;28;20099;-54
2022/03/11 11:43:27;;;;;;;9.05;5.68;;;7.30;51.40;;;;;;5068855;28;20523;-50
2022/03/11 11:46:03;;;;;;;10.40;5.05;;;7.40;51.80;;;;;;5051469;28;20013;-50
2022/03/11 11:48:32;;;;;;;;;;;7.40;51.60;;;;;;5069795;28;20056;-50
2022/03/11 11:51:01;;;;;;;9.60;4.88;;;7.50;53.60;;;;;;5069177;28;20372;-49
2022/03/11 11:53:40;;;;;;;8.57;5.10;;;7.60;53.10;;;;;;5069037;28;20114;-51
2022/03/11 11:56:41;;;;;;;7.85;5.25;;;7.70;51.40;;;;;;5069014;28;20035;-49
2022/03/11 11:59:16;;;;;;;6.75;4.72;;;7.80;52.00;;;;;;5069263;28;20108;-51
2022/03/11 12:01:53;;;;;;;8.30;5.30;;;7.70;52.70;;;;;;5069006;28;20025;-50
2022/03/11 12:04:35;;;;;;;7.65;4.53;;;7.80;51.20;;;;;;5068821;28;20446;-50
2022/03/11 12:07:14;;;;;;;7.43;4.90;;;7.90;52.60;;;;;;5069559;28;20037;-51
2022/03/11 12:09:39;;;;;;;7.55;4.93;;;7.90;51.00;;;;;;5073049;28;20103;-49
2022/03/11 12:12:20;;;;;;;8.63;4.38;;;8.00;50.20;;;;;;5064750;28;20568;-51
2022/03/11 12:15:16;;;;;;;6.57;4.45;;;7.90;50.10;;;;;;5072678;28;20027;-51
2022/03/11 12:18:02;;;;;;;6.35;4.70;;;8.00;50.90;;;;;;5072972;28;20020;-54
2022/03/11 12:20:33;;;;;;;7.72;5.47;;;8.00;51.40;;;;;;5067080;28;20017;-53
2022/03/11 12:23:14;;;;;;;7.05;5.18;;;8.00;50.30;;;;;;5072232;28;20035;-51
2022/03/11 12:25:48;;;;;;;8.70;5.55;;;8.00;50.10;;;;;;5072306;28;20025;-52
2022/03/11 12:28:33;;;;;;;7.75;5.15;;;8.10;52.20;;;;;;5072443;28;20071;-51
2022/03/11 12:31:04;;;;;;;7.55;5.30;;;8.10;50.80;;;;;;5072236;28;20027;-50
2022/03/11 12:33:34;;;;;;;9.70;5.53;;;8.10;51.00;;;;;;5071761;28;20028;-50
2022/03/11 12:36:02;;;;;;;5.30;4.53;;;8.20;50.60;;;;;;5071524;28;20028;-51
2022/03/11 12:38:32;;;;;;;8.30;4.85;;;8.20;50.30;;;;;;5072056;28;20033;-50
2022/03/11 12:41:02;;;;;;;9.15;5.25;;;8.10;49.70;;;;;;5072321;28;20381;-52
2022/03/11 12:43:29;;;;;;;8.65;5.00;;;8.10;51.20;;;;;;5072121;28;20028;-51
2022/03/11 12:45:55;;;;;;;7.15;4.45;;;8.00;51.40;;;;;;5071625;28;20035;-50
2022/03/11 12:48:30;;;;;;;8.43;4.60;;;8.10;50.60;;;;;;5072275;28;20385;-51
2022/03/11 12:50:56;;;;;;;7.70;5.28;;;8.10;51.20;;;;;;5070947;28;20095;-51